Time;durP1;ratioP1;P1;durP2;ratioP2;P2;SDS_P1;SDS_P2;PMS_P1;PMS_P2;Temp;Humidity;BMP_temperature;BMP_pressure;BME280_temperature;BME280_humidity;BME280_pressure;Samples;Min_cycle;Max_cycle;Signal;HPM_P1;HPM_P2
2023/05/28 00:02:20;;;;;;;8.30;4.00;;;;;;;9.32;66.64;97194.35;108982;1274;22986;-83
2023/05/28 00:04:51;;;;;;;8.90;4.20;;;;;;;9.32;67.14;97190.12;109019;1273;22546;-83
2023/05/28 00:07:24;;;;;;;11.00;4.90;;;;;;;9.39;67.13;97188.88;108916;1273;22529;-82
2023/05/28 00:09:55;;;;;;;8.00;4.20;;;;;;;9.49;67.20;97182.59;108962;1269;22634;-83
2023/05/28 00:12:26;;;;;;;8.80;4.20;;;;;;;9.56;66.93;97178.80;108965;1266;24143;-83
2023/05/28 00:14:57;;;;;;;9.00;3.60;;;;;;;9.57;66.90;97178.03;108964;1274;22512;-82
2023/05/28 00:17:29;;;;;;;8.20;4.10;;;;;;;9.60;66.64;97174.71;108987;1273;22524;-82
2023/05/28 00:19:59;;;;;;;5.00;3.10;;;;;;;9.64;66.60;97177.52;108980;1267;22562;-83
2023/05/28 00:22:30;;;;;;;8.20;4.10;;;;;;;9.62;66.40;97176.03;109159;1274;22565;-82
2023/05/28 00:25:01;;;;;;;6.10;3.70;;;;;;;9.46;66.29;97172.52;108985;1274;22514;-82
2023/05/28 00:27:32;;;;;;;5.20;3.60;;;;;;;9.43;66.56;97170.54;109001;1273;22545;-83
2023/05/28 00:30:04;;;;;;;7.40;3.80;;;;;;;9.44;66.70;97167.38;109120;1273;22517;-83
2023/05/28 00:32:34;;;;;;;5.00;3.70;;;;;;;9.46;66.58;97165.21;109049;1273;25944;-83
2023/05/28 00:35:07;;;;;;;5.80;3.20;;;;;;;9.35;66.42;97165.11;108980;1271;22550;-83
2023/05/28 00:37:38;;;;;;;5.70;3.40;;;;;;;9.33;66.59;97163.40;108929;1271;22520;-83
2023/05/28 00:40:11;;;;;;;6.40;3.10;;;;;;;9.30;66.46;97162.48;108941;1274;24271;-83
2023/05/28 00:42:42;;;;;;;5.20;3.10;;;;;;;9.22;66.49;97158.58;108964;1266;25432;-83
2023/05/28 00:45:14;;;;;;;5.70;3.60;;;;;;;9.19;66.53;97157.65;108931;1273;22550;-83
2023/05/28 00:47:46;;;;;;;4.60;3.10;;;;;;;9.20;66.64;97153.23;108974;1267;22508;-83
2023/05/28 00:50:18;;;;;;;6.60;3.10;;;;;;;9.15;66.44;97153.88;108963;1273;22512;-82
2023/05/28 00:52:51;;;;;;;5.40;3.10;;;;;;;9.00;66.57;97148.21;108997;1274;22511;-82
2023/05/28 00:55:23;;;;;;;6.00;3.60;;;;;;;9.01;66.95;97148.65;108995;1256;24336;-82
2023/05/28 00:57:55;;;;;;;6.10;3.20;;;;;;;9.07;66.63;97149.33;108937;1273;22522;-82
2023/05/28 01:00:27;;;;;;;7.00;2.90;;;;;;;9.05;66.57;97150.59;108989;1266;22518;-82
2023/05/28 01:02:58;;;;;;;5.60;3.10;;;;;;;9.05;66.76;97150.16;108984;1273;22522;-82
2023/05/28 01:05:31;;;;;;;4.70;3.00;;;;;;;9.04;66.73;97147.41;108958;1273;25245;-82
2023/05/28 01:08:03;;;;;;;5.20;3.30;;;;;;;9.07;66.79;97149.91;108945;1273;22514;-82
2023/05/28 01:10:35;;;;;;;5.70;3.20;;;;;;;9.08;66.57;97146.31;108914;1274;22516;-83
2023/05/28 01:13:08;;;;;;;6.10;3.20;;;;;;;9.03;66.63;97141.47;109032;1273;22526;-82
2023/05/28 01:15:40;;;;;;;5.30;3.20;;;;;;;8.99;66.50;97143.83;108986;1273;22521;-83
2023/05/28 01:18:11;;;;;;;5.00;3.30;;;;;;;8.96;66.59;97138.94;108968;1274;25247;-83
2023/05/28 01:20:42;;;;;;;5.80;2.80;;;;;;;8.95;66.52;97134.38;108907;1267;22557;-82
2023/05/28 01:23:18;;;;;;;6.10;3.00;;;;;;;8.96;66.67;97131.73;108983;1273;25234;-82
2023/05/28 01:25:53;;;;;;;6.50;3.50;;;;;;;8.95;66.57;97128.09;109005;1274;22512;-82
2023/05/28 01:28:24;;;;;;;8.00;3.40;;;;;;;8.97;66.65;97127.77;109003;1274;24508;-82
2023/05/28 01:30:55;;;;;;;5.00;2.80;;;;;;;8.89;66.36;97124.52;108968;1273;22739;-82
2023/05/28 01:33:27;;;;;;;5.30;3.10;;;;;;;8.66;66.22;97119.22;109000;1274;22515;-82
2023/05/28 01:35:59;;;;;;;5.00;2.80;;;;;;;8.59;66.83;97114.56;108954;1274;22547;-82
2023/05/28 01:38:33;;;;;;;4.10;2.80;;;;;;;8.63;66.80;97113.48;108969;1273;22512;-82
2023/05/28 01:41:05;;;;;;;5.90;2.80;;;;;;;8.67;66.77;97108.80;108967;1272;22522;-82
2023/05/28 01:43:37;;;;;;;5.70;2.80;;;;;;;8.51;66.52;97106.19;108946;1267;22530;-82
2023/05/28 01:46:08;;;;;;;4.70;2.50;;;;;;;8.44;66.91;97105.82;108994;1274;22543;-82
2023/05/28 01:48:40;;;;;;;6.60;2.80;;;;;;;8.43;66.98;97105.85;108976;1275;22536;-82
2023/05/28 01:51:11;;;;;;;6.40;3.20;;;;;;;8.47;67.16;97105.48;108987;1274;22676;-82
2023/05/28 01:53:42;;;;;;;6.10;2.90;;;;;;;8.45;67.21;97103.45;108972;1273;22515;-82
2023/05/28 01:56:13;;;;;;;4.60;3.00;;;;;;;8.29;67.03;97100.18;108936;1270;22542;-82
2023/05/28 01:58:44;;;;;;;5.80;2.70;;;;;;;8.22;67.16;97100.17;108967;1272;22591;-82
2023/05/28 02:01:20;;;;;;;6.30;3.30;;;;;;;8.16;67.38;97094.83;108976;1268;22516;-82
2023/05/28 02:03:50;;;;;;;5.70;3.10;;;;;;;8.15;67.43;97094.91;108971;1267;25288;-82
2023/05/28 02:06:21;;;;;;;5.40;2.40;;;;;;;8.19;67.65;97097.02;108961;1274;22557;-82
2023/05/28 02:08:53;;;;;;;4.10;2.40;;;;;;;8.22;67.68;97095.30;108954;1271;23553;-82
2023/05/28 02:11:25;;;;;;;4.80;2.90;;;;;;;8.25;67.69;97093.58;108990;1272;23452;-82
2023/05/28 02:13:55;;;;;;;6.20;3.10;;;;;;;8.26;67.76;97094.86;108984;1273;23271;-82
2023/05/28 02:16:27;;;;;;;5.10;2.50;;;;;;;8.20;67.57;97094.87;108969;1273;22564;-83
2023/05/28 02:18:58;;;;;;;6.00;2.30;;;;;;;8.19;67.60;97096.83;108607;1270;24171;-82
2023/05/28 02:21:29;;;;;;;5.50;2.60;;;;;;;8.13;67.53;97097.06;108956;1274;22521;-82
2023/05/28 02:24:00;;;;;;;3.80;2.40;;;;;;;8.10;67.67;97096.52;108977;1274;26428;-82
2023/05/28 02:26:31;;;;;;;4.80;2.50;;;;;;;8.13;67.91;97096.59;108951;1274;22538;-83
2023/05/28 02:29:02;;;;;;;4.40;2.50;;;;;;;8.17;67.88;97090.09;108983;1272;22527;-82
2023/05/28 02:31:33;;;;;;;5.40;2.40;;;;;;;8.21;68.00;97095.94;108645;1274;24955;-82
2023/05/28 02:34:04;;;;;;;4.50;2.30;;;;;;;8.24;68.12;97096.21;108724;1272;22519;-82
2023/05/28 02:36:35;;;;;;;3.90;2.80;;;;;;;8.27;67.83;97096.40;108639;1274;23388;-82
2023/05/28 02:39:10;;;;;;;4.20;2.30;;;;;;;8.18;67.35;97097.12;108656;1273;22520;-82
2023/05/28 02:41:41;;;;;;;5.60;2.80;;;;;;;7.93;67.51;97098.57;108622;1274;22543;-82
2023/05/28 02:44:12;;;;;;;5.30;2.80;;;;;;;7.85;67.88;97094.88;108692;1274;22516;-82
2023/05/28 02:46:43;;;;;;;4.90;3.00;;;;;;;7.82;68.10;97095.77;108666;1273;22520;-82
2023/05/28 02:49:14;;;;;;;5.00;2.80;;;;;;;7.84;68.10;97092.08;108666;1273;25929;-82
2023/05/28 02:51:45;;;;;;;5.50;2.30;;;;;;;7.91;68.28;97094.80;108713;1273;25485;-82
2023/05/28 02:54:18;;;;;;;5.70;3.10;;;;;;;7.96;68.03;97092.84;108649;1275;22531;-82
2023/05/28 02:56:53;;;;;;;4.40;2.50;;;;;;;7.96;68.09;97095.96;108669;1268;22550;-82
2023/05/28 02:59:24;;;;;;;3.70;2.30;;;;;;;8.00;68.07;97097.15;108653;1272;26495;-82
2023/05/28 03:01:54;;;;;;;4.90;2.50;;;;;;;8.06;68.13;97094.95;108660;1274;22514;-82
2023/05/28 03:04:26;;;;;;;4.20;2.20;;;;;;;8.01;67.67;97094.80;108674;1267;22625;-82
2023/05/28 03:06:58;;;;;;;5.00;2.80;;;;;;;7.75;67.47;97096.95;108683;1274;22684;-82
2023/05/28 03:09:29;;;;;;;3.60;2.10;;;;;;;7.65;68.06;97092.52;108655;1270;22615;-82
2023/05/28 03:12:00;;;;;;;3.30;2.70;;;;;;;7.73;68.45;97092.24;108691;1267;22529;-82
2023/05/28 03:14:32;;;;;;;4.80;2.10;;;;;;;7.80;68.57;97087.39;108669;1274;22534;-82
2023/05/28 03:17:04;;;;;;;3.40;2.10;;;;;;;7.83;68.49;97091.60;108692;1273;24216;-82
2023/05/28 03:19:36;;;;;;;4.80;2.50;;;;;;;7.91;68.65;97087.41;108645;1267;22531;-82
2023/05/28 03:22:07;;;;;;;4.70;2.90;;;;;;;8.01;68.54;97082.90;108714;1273;25480;-82
2023/05/28 03:24:39;;;;;;;4.20;2.20;;;;;;;8.08;68.65;97078.23;108998;1267;22521;-82
2023/05/28 03:27:10;;;;;;;8.00;3.30;;;;;;;8.11;68.49;97073.81;109015;1273;22553;-82
2023/05/28 03:29:41;;;;;;;3.50;2.00;;;;;;;7.93;68.25;97076.02;108987;1267;22517;-82
2023/05/28 03:32:13;;;;;;;3.70;2.00;;;;;;;7.79;68.38;97069.60;108674;1267;24376;-82
2023/05/28 03:34:44;;;;;;;4.40;2.30;;;;;;;7.68;68.68;97069.76;108665;1271;22563;-82
2023/05/28 03:37:15;;;;;;;3.80;2.30;;;;;;;7.69;69.18;97070.77;108974;1270;25246;-83
2023/05/28 03:39:46;;;;;;;4.20;2.40;;;;;;;7.83;69.56;97072.80;108931;1273;23407;-82
2023/05/28 03:42:19;;;;;;;3.60;2.20;;;;;;;7.99;69.94;97070.48;108945;1273;22511;-83
2023/05/28 03:44:50;;;;;;;6.00;2.40;;;;;;;8.10;69.71;97070.69;108971;1274;22786;-82
2023/05/28 03:47:24;;;;;;;4.50;2.30;;;;;;;8.05;69.70;97073.44;108977;1273;25239;-82
2023/05/28 03:49:56;;;;;;;3.80;2.30;;;;;;;8.02;69.84;97074.46;109013;1275;22549;-82
2023/05/28 03:52:31;;;;;;;3.70;2.00;;;;;;;8.12;70.33;97072.55;109076;1273;22642;-83
2023/05/28 03:55:03;;;;;;;3.60;2.50;;;;;;;8.32;70.60;97072.21;109076;1270;26456;-83
2023/05/28 03:57:35;;;;;;;5.40;2.30;;;;;;;8.41;70.51;97078.37;109029;1274;22522;-83
2023/05/28 04:00:09;;;;;;;3.40;1.90;;;;;;;8.35;70.40;97080.23;109049;1273;22537;-82
2023/05/28 04:02:41;;;;;;;4.80;2.30;;;;;;;8.31;70.65;97079.70;109087;1270;22542;-83
2023/05/28 04:05:14;;;;;;;3.50;2.50;;;;;;;8.37;71.00;97077.23;108813;1267;22507;-82
2023/05/28 04:07:45;;;;;;;3.60;2.40;;;;;;;8.50;71.48;97078.07;108686;1267;23062;-83
2023/05/28 04:10:16;;;;;;;7.00;2.90;;;;;;;8.67;71.40;97076.23;108697;1273;22589;-83
2023/05/28 04:12:50;;;;;;;4.40;2.70;;;;;;;8.81;71.47;97069.55;108666;1274;22518;-82
2023/05/28 04:15:24;;;;;;;4.20;2.50;;;;;;;8.95;71.54;97072.83;108705;1267;22511;-82
2023/05/28 04:17:56;;;;;;;5.40;2.70;;;;;;;9.15;71.94;97073.40;108656;1273;22526;-82
2023/05/28 04:20:28;;;;;;;5.70;2.50;;;;;;;9.32;71.92;97070.41;108739;1267;22624;-83
2023/05/28 04:23:00;;;;;;;6.50;2.40;;;;;;;9.48;72.16;97072.06;108643;1267;22531;-83
2023/05/28 04:25:31;;;;;;;4.40;2.50;;;;;;;9.64;72.35;97070.95;108723;1274;22639;-83
2023/05/28 04:28:05;;;;;;;4.10;2.70;;;;;;;9.76;72.33;97071.57;108674;1273;22521;-82
2023/05/28 04:30:37;;;;;;;3.70;2.20;;;;;;;9.87;72.31;97065.45;108668;1267;22517;-83
2023/05/28 04:33:09;;;;;;;5.80;3.00;;;;;;;9.90;72.24;97065.89;108662;1273;25350;-83
2023/05/28 04:35:41;;;;;;;6.60;4.50;;;;;;;9.93;72.32;97067.10;108698;1273;22554;-83
2023/05/28 04:38:15;;;;;;;7.60;4.20;;;;;;;10.00;72.24;97068.02;108681;1273;22518;-83
2023/05/28 04:40:46;;;;;;;5.70;3.60;;;;;;;10.07;71.93;97070.56;108619;1273;22524;-82
2023/05/28 04:43:17;;;;;;;5.60;3.40;;;;;;;10.17;71.94;97074.34;108707;1267;25432;-83
2023/05/28 04:45:48;;;;;;;7.80;3.20;;;;;;;10.27;71.63;97071.67;108682;1274;22593;-83
2023/05/28 04:48:19;;;;;;;6.40;3.40;;;;;;;10.40;71.21;97071.46;108679;1267;22550;-83
2023/05/28 04:50:50;;;;;;;7.10;3.30;;;;;;;10.56;71.24;97070.77;108683;1273;24329;-83
2023/05/28 04:53:21;;;;;;;6.10;3.10;;;;;;;10.72;70.99;97072.40;108680;1267;22537;-82
2023/05/28 04:55:52;;;;;;;5.40;3.10;;;;;;;10.88;70.65;97071.47;108691;1273;22529;-83
2023/05/28 04:58:23;;;;;;;5.30;3.50;;;;;;;11.12;70.98;97074.98;108652;1273;23862;-83
2023/05/28 05:00:55;;;;;;;5.70;3.30;;;;;;;11.37;71.05;97071.65;108657;1273;22516;-83
2023/05/28 05:03:27;;;;;;;6.80;3.70;;;;;;;11.67;70.93;97072.15;108700;1270;22541;-83
2023/05/28 05:05:58;;;;;;;9.50;3.90;;;;;;;11.98;69.44;97068.77;108631;1261;24471;-83
2023/05/28 05:08:28;;;;;;;7.90;4.10;;;;;;;12.79;69.77;97066.21;108714;1273;22589;-83
2023/05/28 05:11:01;;;;;;;7.40;3.90;;;;;;;14.15;68.93;97067.08;108676;1266;22552;-83
2023/05/28 05:13:32;;;;;;;6.60;3.90;;;;;;;15.69;67.25;97070.19;108652;1270;22521;-83
2023/05/28 05:16:03;;;;;;;5.70;3.50;;;;;;;17.21;65.67;97067.02;108614;1270;22526;-84
2023/05/28 05:18:34;;;;;;;7.20;3.40;;;;;;;18.48;63.36;97070.73;108613;1270;22552;-83
2023/05/28 05:21:06;;;;;;;6.50;3.50;;;;;;;19.55;61.16;97068.42;108581;1270;25369;-83
2023/05/28 05:23:37;;;;;;;5.50;3.20;;;;;;;20.55;59.08;97067.43;108643;1273;22996;-83
2023/05/28 05:26:12;;;;;;;5.20;3.20;;;;;;;21.07;56.80;97072.06;108651;1273;22525;-83
2023/05/28 05:28:43;;;;;;;5.90;3.40;;;;;;;21.32;54.54;97067.67;108636;1267;24276;-83
2023/05/28 05:31:14;;;;;;;4.80;3.60;;;;;;;21.77;53.91;97063.85;108732;1270;23106;-83
2023/05/28 05:33:45;;;;;;;6.20;4.10;;;;;;;22.47;52.59;97061.65;109095;1273;22542;-83
2023/05/28 05:36:16;;;;;;;5.80;4.00;;;;;;;22.99;51.39;97059.89;109088;1273;22545;-83
2023/05/28 05:38:47;;;;;;;6.10;3.50;;;;;;;23.50;50.35;97061.31;109049;1270;22542;-83
2023/05/28 05:41:18;;;;;;;6.10;3.60;;;;;;;23.92;49.31;97056.86;109089;1270;22535;-83
2023/05/28 05:43:50;;;;;;;6.70;3.70;;;;;;;24.38;48.02;97058.48;109042;1267;22547;-83
2023/05/28 05:46:22;;;;;;;6.90;3.50;;;;;;;24.53;46.80;97061.27;109042;1274;22545;-83
2023/05/28 05:48:53;;;;;;;6.20;3.40;;;;;;;24.86;45.92;97061.48;109089;1273;22692;-81
2023/05/28 05:51:24;;;;;;;6.30;3.60;;;;;;;25.10;45.05;97058.37;109051;1273;24274;-83
2023/05/28 05:53:56;;;;;;;7.00;3.70;;;;;;;25.50;44.61;97057.71;109056;1267;24212;-81
2023/05/28 05:56:27;;;;;;;5.40;3.40;;;;;;;26.00;43.81;97057.67;109081;1267;22534;-82
2023/05/28 05:59:00;;;;;;;5.40;3.30;;;;;;;26.26;42.88;97060.29;109047;1273;22558;-82
2023/05/28 06:01:32;;;;;;;6.10;3.20;;;;;;;26.60;42.21;97056.50;109116;1273;22526;-83
2023/05/28 06:04:02;;;;;;;4.30;3.10;;;;;;;26.77;41.04;97056.86;109095;1266;22542;-83
2023/05/28 06:06:38;;;;;;;4.60;2.80;;;;;;;26.74;40.54;97056.27;109011;1273;22461;-86
2023/05/28 06:09:10;;;;;;;6.40;3.40;;;;;;;26.55;39.22;97058.08;109085;1267;22519;-85
2023/05/28 06:11:41;;;;;;;4.70;3.10;;;;;;;26.58;39.39;97055.48;109074;1266;26574;-84
2023/05/28 06:14:12;;;;;;;4.90;3.10;;;;;;;26.90;39.25;97054.42;109087;1267;24212;-84
2023/05/28 06:16:43;;;;;;;6.60;3.20;;;;;;;27.28;38.87;97054.39;109064;1267;25246;-86
2023/05/28 06:19:14;;;;;;;6.00;3.40;;;;;;;27.55;38.33;97054.16;109103;1273;23679;-85
2023/05/28 06:21:45;;;;;;;5.50;3.10;;;;;;;27.65;37.56;97056.20;109061;1273;25380;-84
2023/05/28 06:24:16;;;;;;;5.40;3.40;;;;;;;27.69;37.26;97054.43;109051;1267;22540;-86
2023/05/28 06:26:48;;;;;;;6.50;3.10;;;;;;;27.69;36.87;97058.25;109035;1269;23821;-85
2023/05/28 06:29:19;;;;;;;5.50;3.20;;;;;;;27.83;36.59;97056.48;108981;1273;24397;-84
2023/05/28 06:31:51;;;;;;;4.80;3.00;;;;;;;26.99;35.40;97054.58;109045;1273;22562;-84
2023/05/28 06:34:22;;;;;;;6.40;3.00;;;;;;;26.84;36.31;97056.14;108979;1250;24354;-84
2023/05/28 06:36:54;;;;;;;6.20;3.10;;;;;;;27.19;36.06;97056.52;109059;1267;22522;-84
2023/05/28 06:39:26;;;;;;;6.20;3.00;;;;;;;27.26;35.84;97059.83;109080;1268;22552;-83
2023/05/28 06:41:57;;;;;;;5.70;2.90;;;;;;;27.43;35.85;97063.46;109090;1274;22619;-83
2023/05/28 06:44:28;;;;;;;4.90;2.90;;;;;;;27.74;35.54;97062.33;109094;1273;22645;-85
2023/05/28 06:47:00;;;;;;;6.20;3.10;;;;;;;27.91;34.79;97059.33;109121;1267;22519;-84
2023/05/28 06:49:31;;;;;;;6.50;2.90;;;;;;;27.94;34.79;97053.81;109086;1273;22555;-84
2023/05/28 06:52:02;;;;;;;3.40;2.80;;;;;;;28.13;34.58;97047.05;109038;1272;22589;-84
2023/05/28 06:54:33;;;;;;;6.10;2.70;;;;;;;28.35;34.33;97053.02;108996;1273;22553;-84
2023/05/28 06:57:06;;;;;;;4.10;2.50;;;;;;;28.36;33.85;97050.30;109025;1267;22537;-84
2023/05/28 06:59:37;;;;;;;8.60;3.30;;;;;;;27.73;32.84;97050.94;109099;1273;22540;-84
2023/05/28 07:02:15;;;;;;;4.30;2.80;;;;;;;27.70;34.11;97048.42;109120;1273;22524;-83
2023/05/28 07:04:47;;;;;;;5.90;2.90;;;;;;;28.09;33.98;97044.07;109097;1267;22521;-83
2023/05/28 07:07:18;;;;;;;4.20;2.90;;;;;;;28.17;33.91;97045.67;109126;1273;22521;-84
2023/05/28 07:09:49;;;;;;;4.60;2.90;;;;;;;28.34;33.63;97046.09;109014;1273;32989;-84
2023/05/28 07:12:20;;;;;;;7.00;3.10;;;;;;;28.63;33.42;97044.16;109067;1273;25280;-84
2023/05/28 07:14:51;;;;;;;4.20;2.70;;;;;;;28.66;32.83;97038.71;109060;1273;25403;-84
2023/05/28 07:17:24;;;;;;;4.90;3.00;;;;;;;28.50;32.21;97039.67;108960;1266;22539;-83
2023/05/28 07:19:55;;;;;;;4.40;2.30;;;;;;;28.31;32.70;97038.59;108959;1273;22522;-84
2023/05/28 07:22:26;;;;;;;5.60;2.70;;;;;;;28.44;32.61;97038.02;108965;1266;22521;-84
2023/05/28 07:24:57;;;;;;;6.60;3.10;;;;;;;28.50;32.15;97034.15;108988;1270;22622;-84
2023/05/28 07:27:29;;;;;;;5.60;2.70;;;;;;;28.45;31.86;97031.73;109001;1273;22567;-83
2023/05/28 07:30:02;;;;;;;4.60;2.40;;;;;;;28.43;31.97;97030.23;109131;1267;23574;-77
2023/05/28 07:32:34;;;;;;;5.80;3.50;;;;;;;28.28;31.94;97026.89;109199;1267;22639;-84
2023/05/28 07:35:07;;;;;;;3.50;2.60;;;;;;;28.14;32.25;97025.24;109165;1270;24383;-83
2023/05/28 07:37:39;;;;;;;10.60;3.50;;;;;;;28.10;32.09;97023.67;109115;1273;23218;-83
2023/05/28 07:40:12;;;;;;;4.40;2.60;;;;;;;27.94;32.50;97020.27;108949;1267;23198;-82
2023/05/28 07:42:47;;;;;;;5.20;2.90;;;;;;;27.84;32.37;97024.41;108971;1266;22521;-83
2023/05/28 07:45:21;;;;;;;7.70;3.20;;;;;;;27.74;32.40;97026.30;108990;1273;22545;-83
2023/05/28 07:47:52;;;;;;;4.90;3.10;;;;;;;27.51;32.25;97028.76;108958;1273;22527;-83
2023/05/28 07:50:22;;;;;;;6.20;2.80;;;;;;;27.44;32.14;97022.79;108967;1273;22545;-85
2023/05/28 07:52:53;;;;;;;6.20;2.90;;;;;;;26.59;31.10;97015.90;108984;1273;22530;-84
2023/05/28 07:55:25;;;;;;;5.60;3.00;;;;;;;25.67;32.69;97017.25;108989;1273;24375;-84
2023/05/28 07:57:58;;;;;;;7.00;3.40;;;;;;;25.21;33.43;97016.69;108975;1273;23174;-85
2023/05/28 08:00:30;;;;;;;5.50;3.00;;;;;;;25.23;33.93;97020.67;108955;1273;25002;-84
2023/05/28 08:05:10;;;;;;;5.00;3.00;;;;;;;25.04;34.05;97012.52;105688;1303;545062;-86
2023/05/28 08:07:41;;;;;;;7.00;3.40;;;;;;;24.46;34.41;97007.52;108421;1276;22601;-83
2023/05/28 08:10:12;;;;;;;5.10;3.50;;;;;;;24.29;35.82;97005.71;108290;1282;33217;-83
2023/05/28 08:12:43;;;;;;;8.80;3.40;;;;;;;24.48;35.55;97003.16;108278;1281;22625;-84
2023/05/28 08:15:20;;;;;;;6.70;3.30;;;;;;;24.40;35.98;97006.49;108290;1279;24005;-85
2023/05/28 08:17:56;;;;;;;5.30;2.70;;;;;;;24.59;35.76;97007.61;108348;1276;197104;-86
2023/05/28 08:20:27;;;;;;;4.60;3.00;;;;;;;24.48;35.22;97004.16;108581;1272;48134;-86
2023/05/28 08:22:59;;;;;;;7.10;3.20;;;;;;;24.28;35.88;97003.14;108990;1270;24271;-86
2023/05/28 08:25:30;;;;;;;6.20;3.20;;;;;;;24.19;36.19;97001.87;108955;1269;22549;-86
2023/05/28 08:28:01;;;;;;;6.60;3.10;;;;;;;24.24;36.14;97001.28;108956;1269;22521;-85
2023/05/28 08:30:33;;;;;;;5.20;2.90;;;;;;;24.16;36.24;97004.52;108939;1269;41374;-88
2023/05/28 08:33:04;;;;;;;5.30;2.10;;;;;;;23.59;32.79;97009.94;109028;1270;27588;-88
2023/05/28 08:35:36;;;;;;;4.70;2.60;;;;;;;22.29;33.27;96998.55;109023;1275;22565;-85
2023/05/28 08:38:07;;;;;;;7.40;2.50;;;;;;;21.62;35.64;96999.95;108971;1275;22523;-85
2023/05/28 08:40:42;;;;;;;3.70;2.40;;;;;;;21.53;35.61;96999.05;109014;1275;26869;-84
2023/05/28 08:43:13;;;;;;;4.00;2.10;;;;;;;21.56;34.81;96998.36;109162;1275;22551;-84
2023/05/28 08:45:44;;;;;;;5.00;2.80;;;;;;;21.32;35.84;96996.88;109016;1275;23263;-86
2023/05/28 08:48:17;;;;;;;4.20;2.10;;;;;;;21.19;35.08;97001.61;109117;1269;22530;-85
2023/05/28 08:50:52;;;;;;;5.50;2.40;;;;;;;20.74;36.08;96996.84;109060;1275;42140;-84
2023/05/28 08:53:25;;;;;;;3.20;2.50;;;;;;;20.88;37.27;96998.58;109031;1275;24216;-84
2023/05/28 08:55:57;;;;;;;3.40;2.20;;;;;;;21.12;37.27;96992.20;109322;1271;23134;-85
2023/05/28 08:58:28;;;;;;;5.00;2.40;;;;;;;21.07;35.16;96992.48;109290;1271;23347;-86
2023/05/28 09:00:59;;;;;;;3.80;2.30;;;;;;;20.43;34.69;96991.60;109324;1267;22617;-85
2023/05/28 09:03:30;;;;;;;6.20;2.50;;;;;;;19.97;36.55;96989.35;109338;1271;22509;-84
2023/05/28 09:06:01;;;;;;;3.40;2.10;;;;;;;20.15;37.50;96991.44;109346;1269;26564;-85
2023/05/28 09:08:32;;;;;;;4.40;2.70;;;;;;;20.44;37.84;96987.79;109313;1263;22535;-84
2023/05/28 09:11:11;;;;;;;6.80;2.70;;;;;;;20.63;37.92;96983.13;109317;1266;22627;-86
2023/05/28 09:13:47;;;;;;;3.20;2.00;;;;;;;20.57;35.41;96988.61;109349;1266;22560;-86
2023/05/28 09:16:22;;;;;;;4.70;2.50;;;;;;;19.89;35.19;96986.96;109294;1258;22535;-85
2023/05/28 09:19:03;;;;;;;4.90;1.90;;;;;;;19.56;36.39;96980.59;109331;1259;22538;-84
2023/05/28 09:21:34;;;;;;;3.70;2.00;;;;;;;19.65;37.45;96979.70;109292;1271;22507;-87
2023/05/28 09:24:05;;;;;;;3.10;2.00;;;;;;;19.50;37.28;96980.90;109333;1260;22511;-85
2023/05/28 09:26:36;;;;;;;4.90;2.30;;;;;;;19.51;37.32;96981.36;109316;1271;22531;-86
2023/05/28 09:29:14;;;;;;;4.50;2.20;;;;;;;19.49;37.74;96979.70;109317;1271;22524;-86
2023/05/28 09:31:45;;;;;;;4.10;2.00;;;;;;;19.73;38.82;96974.15;109339;1247;22524;-84
2023/05/28 09:34:20;;;;;;;3.80;1.80;;;;;;;20.03;38.77;96969.12;109296;1271;22544;-85
2023/05/28 09:36:56;;;;;;;4.90;2.00;;;;;;;20.19;38.97;96971.42;109326;1271;22511;-85
2023/05/28 09:39:28;;;;;;;3.10;1.70;;;;;;;20.30;38.73;96972.52;109248;1270;26189;-86
2023/05/28 09:42:06;;;;;;;5.50;2.60;;;;;;;20.26;38.00;96975.27;109298;1271;22511;-86
2023/05/28 09:44:38;;;;;;;3.20;2.10;;;;;;;20.19;37.97;96971.13;109280;1271;22508;-85
2023/05/28 09:47:16;;;;;;;3.70;1.60;;;;;;;20.12;38.20;96969.27;109259;1266;22541;-86
2023/05/28 09:49:49;;;;;;;4.00;2.30;;;;;;;20.16;38.28;96968.88;109192;1266;22529;-85
2023/05/28 09:52:22;;;;;;;3.30;1.90;;;;;;;20.22;38.83;96966.58;109270;1271;22535;-85
2023/05/28 09:54:55;;;;;;;5.10;2.30;;;;;;;20.14;37.47;96964.88;109295;1271;23410;-85
2023/05/28 09:57:31;;;;;;;5.70;2.30;;;;;;;19.93;37.28;96961.14;108903;1263;22560;-86
2023/05/28 10:00:19;;;;;;;4.10;2.00;;;;;;;19.56;37.10;96960.90;109929;1266;22533;-86
2023/05/28 10:03:01;;;;;;;4.60;2.20;;;;;;;19.46;39.42;96958.52;109384;1271;23129;-87
2023/05/28 10:05:35;;;;;;;4.70;2.50;;;;;;;19.75;39.39;96958.30;109339;1266;22817;-84
2023/05/28 10:08:08;;;;;;;8.60;2.70;;;;;;;19.75;38.35;96954.10;108776;1264;22505;-86
2023/05/28 10:10:46;;;;;;;2.70;2.00;;;;;;;19.72;39.35;96948.81;108765;1266;65882;-82
2023/05/28 10:13:18;;;;;;;6.00;1.80;;;;;;;19.69;37.95;96951.78;108945;1257;22521;-81
2023/05/28 10:15:49;;;;;;;4.60;2.50;;;;;;;19.52;38.24;96948.13;108917;1271;24265;-83
2023/05/28 10:18:22;;;;;;;3.90;2.40;;;;;;;19.43;38.36;96950.10;109267;1271;23304;-85
2023/05/28 10:20:53;;;;;;;5.50;2.20;;;;;;;19.35;39.13;96946.64;109202;1271;24342;-84
2023/05/28 10:23:25;;;;;;;3.00;2.10;;;;;;;19.59;40.46;96942.95;109298;1271;22540;-84
2023/05/28 10:25:57;;;;;;;8.40;2.70;;;;;;;19.81;39.62;96941.01;109279;1269;22520;-83
2023/05/28 10:28:31;;;;;;;3.70;2.40;;;;;;;19.75;39.64;96941.02;109288;1266;22514;-83
2023/05/28 10:31:07;;;;;;;4.50;2.30;;;;;;;19.58;38.34;96941.69;109217;1271;22569;-82
2023/05/28 10:33:42;;;;;;;4.30;2.50;;;;;;;19.17;38.26;96941.52;109284;1264;22527;-84
2023/05/28 10:36:15;;;;;;;6.60;2.90;;;;;;;19.06;39.53;96943.33;109345;1269;25264;-85
2023/05/28 10:38:58;;;;;;;3.50;2.10;;;;;;;19.20;40.51;96945.24;109270;1271;22570;-87
2023/05/28 10:41:34;;;;;;;5.40;2.30;;;;;;;19.37;39.75;96941.59;109225;1267;23386;-85
2023/05/28 10:44:10;;;;;;;4.10;2.20;;;;;;;19.34;40.51;96938.80;109277;1266;22511;-88
2023/05/28 10:46:43;;;;;;;6.10;2.70;;;;;;;19.34;40.98;96937.38;109261;1271;22562;-86
2023/05/28 10:49:18;;;;;;;3.30;2.50;;;;;;;19.42;41.04;96936.94;109187;1271;104549;-86
2023/05/28 10:51:59;;;;;;;9.10;2.70;;;;;;;19.58;41.14;96936.47;109284;1271;22574;-85
2023/05/28 10:54:45;;;;;;;4.20;2.30;;;;;;;19.71;40.32;96933.80;109281;1271;22578;-85
2023/05/28 10:57:18;;;;;;;7.20;2.80;;;;;;;19.91;41.56;96932.91;109289;1269;22621;-86
2023/05/28 10:59:52;;;;;;;6.30;2.80;;;;;;;20.12;41.46;96929.73;109221;1267;49526;-86
2023/05/28 11:02:26;;;;;;;5.80;2.20;;;;;;;20.26;41.18;96928.74;109272;1248;22540;-85
2023/05/28 11:05:00;;;;;;;3.90;2.30;;;;;;;20.09;39.61;96932.95;109297;1263;22511;-85
2023/05/28 11:07:34;;;;;;;4.80;2.60;;;;;;;19.88;40.47;96928.42;109299;1264;24233;-86
2023/05/28 11:10:08;;;;;;;3.80;2.30;;;;;;;19.92;41.19;96922.17;109346;1271;39936;-85
2023/05/28 11:12:41;;;;;;;4.90;2.20;;;;;;;20.05;40.93;96922.34;109461;1266;22558;-86
2023/05/28 11:15:14;;;;;;;5.10;2.50;;;;;;;20.20;41.40;96923.08;109448;1268;22589;-86
2023/05/28 11:17:47;;;;;;;3.50;2.00;;;;;;;20.28;40.42;96918.35;109415;1266;23226;-84
2023/05/28 11:20:24;;;;;;;5.20;2.50;;;;;;;20.07;39.34;96919.79;109386;1269;58825;-86
2023/05/28 11:22:58;;;;;;;3.20;2.00;;;;;;;19.92;40.67;96916.41;109315;1266;22522;-86
2023/05/28 11:25:30;;;;;;;4.00;2.40;;;;;;;20.06;41.46;96920.62;109342;1266;22595;-85
2023/05/28 11:28:03;;;;;;;5.00;2.20;;;;;;;20.27;41.53;96924.78;109204;1271;22637;-85
2023/05/28 11:30:36;;;;;;;4.70;2.30;;;;;;;20.36;40.65;96923.95;109270;1266;42485;-86
2023/05/28 11:33:08;;;;;;;4.70;2.30;;;;;;;20.33;39.88;96918.06;109348;1266;22516;-85
2023/05/28 11:35:42;;;;;;;5.60;2.50;;;;;;;20.32;40.36;96914.90;109298;1271;23266;-86
2023/05/28 11:38:18;;;;;;;6.40;2.90;;;;;;;20.34;39.98;96913.48;109276;1264;22578;-85
2023/05/28 11:40:50;;;;;;;4.00;2.50;;;;;;;20.28;39.76;96912.64;109255;1264;55040;-85
2023/05/28 11:43:25;;;;;;;3.00;2.30;;;;;;;20.25;39.67;96906.30;109336;1266;22566;-84
2023/05/28 11:46:07;;;;;;;4.30;2.30;;;;;;;20.27;40.30;96905.15;109246;1271;22543;-86
2023/05/28 11:48:41;;;;;;;6.00;2.30;;;;;;;20.21;38.92;96907.27;109265;1269;22557;-85
2023/05/28 11:51:14;;;;;;;7.30;2.00;;;;;;;20.02;38.82;96902.77;109248;1271;49493;-86
2023/05/28 11:53:49;;;;;;;7.20;2.60;;;;;;;19.98;39.97;96898.11;109271;1271;22727;-88
2023/05/28 11:56:24;;;;;;;4.60;2.30;;;;;;;20.09;40.87;96901.55;109292;1271;23185;-88